Time;durP1;ratioP1;P1;durP2;ratioP2;P2;SDS_P1;SDS_P2;PMS_P1;PMS_P2;Temp;Humidity;BMP_temperature;BMP_pressure;BME280_temperature;BME280_humidity;BME280_pressure;Samples;Min_cycle;Max_cycle;Signal;HPM_P1;HPM_P2
2022/02/17 00:00:13;;;;;;;1.60;0.60;;;12.30;71.40;;;;;;5028201;28;20218;-68
2022/02/17 00:02:41;;;;;;;1.60;0.50;;;12.30;71.40;;;;;;5030834;28;20690;-68
2022/02/17 00:05:09;;;;;;;1.40;0.50;;;12.30;71.60;;;;;;5029473;28;20214;-68
2022/02/17 00:07:37;;;;;;;1.50;0.50;;;12.20;71.60;;;;;;5030135;28;20191;-69
2022/02/17 00:10:05;;;;;;;1.40;0.50;;;12.20;71.70;;;;;;5029978;28;20250;-68
2022/02/17 00:12:33;;;;;;;1.35;0.50;;;12.20;71.80;;;;;;5030156;28;20253;-69
2022/02/17 00:15:00;;;;;;;1.40;0.60;;;12.20;71.90;;;;;;5029322;28;20237;-68
2022/02/17 00:17:27;;;;;;;2.30;0.50;;;12.20;71.70;;;;;;5024755;28;20222;-68
2022/02/17 00:19:54;;;;;;;1.38;0.50;;;12.20;71.80;;;;;;5030187;28;20709;-68
2022/02/17 00:22:21;;;;;;;1.40;0.60;;;12.30;72.00;;;;;;5029165;28;20199;-68
2022/02/17 00:24:48;;;;;;;1.40;0.52;;;12.30;72.00;;;;;;5030439;28;20570;-68
2022/02/17 00:27:15;;;;;;;1.48;0.63;;;12.30;72.30;;;;;;5028953;28;20191;-69
2022/02/17 00:29:43;;;;;;;1.38;0.50;;;12.30;72.50;;;;;;5030105;28;20191;-68
2022/02/17 00:32:10;;;;;;;1.42;0.50;;;12.30;72.60;;;;;;5029473;28;20211;-68
2022/02/17 00:34:37;;;;;;;2.35;0.60;;;12.30;72.60;;;;;;5030121;28;20205;-69
2022/02/17 00:37:05;;;;;;;1.35;0.50;;;12.30;72.60;;;;;;5023319;28;20183;-68
2022/02/17 00:39:32;;;;;;;1.70;0.50;;;12.30;72.90;;;;;;5028448;28;20675;-70
2022/02/17 00:41:59;;;;;;;1.30;0.40;;;12.20;73.30;;;;;;5029997;28;20299;-68
2022/02/17 00:44:26;;;;;;;1.38;0.52;;;12.20;73.50;;;;;;5028621;28;20191;-68
2022/02/17 00:46:55;;;;;;;1.40;0.50;;;12.30;73.40;;;;;;5028545;28;20236;-68
2022/02/17 00:49:22;;;;;;;1.40;0.60;;;12.20;73.80;;;;;;5031485;28;20282;-70
2022/02/17 00:51:50;;;;;;;1.60;0.60;;;12.20;73.70;;;;;;5012295;28;20198;-68
2022/02/17 00:54:17;;;;;;;2.40;0.60;;;12.20;73.90;;;;;;5011818;28;20195;-68
2022/02/17 00:56:44;;;;;;;1.40;0.50;;;12.20;73.90;;;;;;5022810;28;20180;-68
2022/02/17 00:59:11;;;;;;;1.40;0.60;;;12.20;74.10;;;;;;5024781;28;20191;-68
2022/02/17 01:01:38;;;;;;;1.33;0.50;;;12.20;74.10;;;;;;5031809;28;20218;-68
2022/02/17 01:04:06;;;;;;;1.38;0.50;;;12.20;74.30;;;;;;5029340;28;20199;-69
2022/02/17 01:06:38;;;;;;;1.50;0.50;;;12.20;74.10;;;;;;5031938;28;20276;-69
2022/02/17 01:09:05;;;;;;;1.50;0.70;;;12.20;74.20;;;;;;5016787;28;20192;-68
2022/02/17 01:11:32;;;;;;;1.40;0.50;;;12.20;74.50;;;;;;5012014;28;20191;-69
2022/02/17 01:13:59;;;;;;;1.60;0.60;;;12.20;74.10;;;;;;5024347;28;20254;-68
2022/02/17 01:16:26;;;;;;;1.38;0.50;;;12.20;74.20;;;;;;5022610;28;20192;-68
2022/02/17 01:18:53;;;;;;;1.60;0.60;;;12.20;74.20;;;;;;5011721;28;20219;-68
2022/02/17 01:21:21;;;;;;;1.40;0.57;;;12.20;74.50;;;;;;5017970;28;20345;-68
2022/02/17 01:23:48;;;;;;;1.40;0.50;;;12.20;74.60;;;;;;5026682;28;20183;-68
2022/02/17 01:26:15;;;;;;;1.40;0.50;;;12.20;74.70;;;;;;5031847;28;20191;-68
2022/02/17 01:28:42;;;;;;;1.33;0.50;;;12.20;74.30;;;;;;5030881;28;20180;-68
2022/02/17 01:31:09;;;;;;;1.40;0.50;;;12.20;74.40;;;;;;5035298;28;20202;-68
2022/02/17 01:33:36;;;;;;;1.50;0.50;;;12.20;74.00;;;;;;5029807;28;20216;-68
2022/02/17 01:36:06;;;;;;;1.40;0.50;;;12.20;74.00;;;;;;5015390;28;20195;-68
2022/02/17 01:38:35;;;;;;;1.60;0.60;;;12.20;73.90;;;;;;5018423;28;20183;-69
2022/02/17 01:41:04;;;;;;;1.30;0.50;;;12.20;73.80;;;;;;5019243;28;20223;-69
2022/02/17 01:43:31;;;;;;;1.40;0.50;;;12.20;73.80;;;;;;5017360;28;20462;-68
2022/02/17 01:45:59;;;;;;;2.05;0.52;;;12.10;73.00;;;;;;5035178;28;20192;-68
2022/02/17 01:48:26;;;;;;;1.30;0.50;;;12.20;73.20;;;;;;5031732;28;20233;-68
2022/02/17 01:50:53;;;;;;;1.40;0.52;;;12.20;72.60;;;;;;5026088;28;20188;-68
2022/02/17 01:53:21;;;;;;;1.40;0.50;;;12.20;72.20;;;;;;5025302;28;20226;-68
2022/02/17 01:55:51;;;;;;;1.50;0.50;;;12.30;72.10;;;;;;5027086;28;20219;-68
2022/02/17 01:58:19;;;;;;;1.40;0.57;;;12.20;71.50;;;;;;5015288;28;20192;-68
2022/02/17 02:00:46;;;;;;;2.90;0.57;;;12.20;71.50;;;;;;5015302;28;20215;-67
2022/02/17 02:03:14;;;;;;;1.60;0.60;;;12.20;70.80;;;;;;5014971;28;20532;-68
2022/02/17 02:05:41;;;;;;;1.40;0.50;;;12.30;70.60;;;;;;5022606;28;20187;-68
2022/02/17 02:08:10;;;;;;;1.40;0.52;;;12.30;70.30;;;;;;5034766;28;20191;-68
2022/02/17 02:10:37;;;;;;;1.40;0.57;;;12.30;70.00;;;;;;5025950;28;20219;-68
2022/02/17 02:13:06;;;;;;;1.50;0.70;;;12.30;69.00;;;;;;5014676;28;20230;-68
2022/02/17 02:15:48;;;;;;;1.30;0.50;;;12.30;68.80;;;;;;5031914;28;20184;-68
2022/02/17 02:18:15;;;;;;;1.40;0.50;;;12.40;68.70;;;;;;5034538;28;20237;-68
2022/02/17 02:20:48;;;;;;;1.40;0.50;;;12.40;68.10;;;;;;5014976;28;20690;-67
2022/02/17 02:23:15;;;;;;;2.72;0.57;;;12.40;68.00;;;;;;5014694;28;20587;-68
2022/02/17 02:25:45;;;;;;;1.33;0.50;;;12.40;67.80;;;;;;5031334;28;20341;-68
2022/02/17 02:28:16;;;;;;;1.35;0.50;;;12.40;67.50;;;;;;5029603;28;20188;-68
2022/02/17 02:30:43;;;;;;;1.35;0.57;;;12.40;67.10;;;;;;5026868;28;20188;-77
2022/02/17 02:33:10;;;;;;;1.35;0.50;;;12.50;67.20;;;;;;5029153;28;20241;-68
2022/02/17 02:35:37;;;;;;;1.80;0.80;;;12.50;66.90;;;;;;5031052;28;20215;-69
2022/02/17 02:38:06;;;;;;;1.50;0.60;;;12.50;66.80;;;;;;5014418;28;20276;-68
2022/02/17 02:40:33;;;;;;;2.67;0.70;;;12.50;67.80;;;;;;5014591;28;20551;-68
2022/02/17 02:42:59;;;;;;;1.60;0.70;;;12.50;67.40;;;;;;5033990;28;20313;-68
2022/02/17 02:45:26;;;;;;;1.40;0.60;;;12.60;67.00;;;;;;5026325;28;20277;-68
2022/02/17 02:47:53;;;;;;;1.40;0.60;;;12.60;66.70;;;;;;5028555;28;20215;-67
2022/02/17 02:50:20;;;;;;;1.60;0.50;;;12.60;66.20;;;;;;5033396;28;20195;-68
2022/02/17 02:52:47;;;;;;;1.40;0.60;;;12.60;66.20;;;;;;5026110;28;20639;-68
2022/02/17 02:55:16;;;;;;;1.40;0.60;;;12.60;65.40;;;;;;5013980;28;20258;-68
2022/02/17 02:57:43;;;;;;;1.38;0.55;;;12.60;65.40;;;;;;5018430;28;20214;-68
2022/02/17 03:00:10;;;;;;;2.17;0.50;;;12.60;66.20;;;;;;5033702;28;20712;-68
2022/02/17 03:02:37;;;;;;;1.88;0.80;;;12.60;66.40;;;;;;5028894;28;20265;-68
2022/02/17 03:05:04;;;;;;;1.38;0.52;;;12.50;65.90;;;;;;5024577;28;20232;-69
2022/02/17 03:07:31;;;;;;;1.40;0.50;;;12.60;65.80;;;;;;5030057;28;20221;-68
2022/02/17 03:09:58;;;;;;;1.40;0.50;;;12.50;65.20;;;;;;5013751;28;20631;-68
2022/02/17 03:12:27;;;;;;;1.50;0.60;;;12.50;65.40;;;;;;5014195;28;20202;-68
2022/02/17 03:14:54;;;;;;;4.32;0.50;;;12.40;65.20;;;;;;5033583;28;20202;-68
2022/02/17 03:17:21;;;;;;;1.40;0.68;;;12.40;65.20;;;;;;5014103;28;20598;-68
2022/02/17 03:19:48;;;;;;;1.33;0.50;;;12.40;65.20;;;;;;5015367;28;20233;-68
2022/02/17 03:22:14;;;;;;;1.70;0.60;;;12.40;65.70;;;;;;5033298;28;20277;-67
2022/02/17 03:24:43;;;;;;;1.40;0.50;;;12.40;65.80;;;;;;5026881;28;20277;-68
2022/02/17 03:27:10;;;;;;;1.40;0.60;;;12.40;66.20;;;;;;5033069;28;20195;-68
2022/02/17 03:29:38;;;;;;;1.38;0.50;;;12.40;66.20;;;;;;5017831;28;20219;-68
2022/02/17 03:32:06;;;;;;;1.30;0.60;;;12.30;66.70;;;;;;5015421;28;20207;-68
2022/02/17 03:34:33;;;;;;;1.50;0.70;;;12.30;67.10;;;;;;5033087;28;20534;-68
2022/02/17 03:37:00;;;;;;;1.40;0.60;;;12.20;67.10;;;;;;5019586;28;20237;-68
2022/02/17 03:39:27;;;;;;;1.38;0.50;;;12.20;67.70;;;;;;5013433;28;20242;-68
2022/02/17 03:41:54;;;;;;;1.30;0.50;;;12.20;67.60;;;;;;5023702;28;20214;-68
2022/02/17 03:44:21;;;;;;;1.85;0.70;;;12.20;67.80;;;;;;5033012;28;20192;-68
2022/02/17 03:46:49;;;;;;;1.40;0.60;;;12.20;67.50;;;;;;5022525;28;20215;-68
2022/02/17 03:49:16;;;;;;;1.45;0.65;;;12.20;67.80;;;;;;5012718;28;20228;-68
2022/02/17 03:51:43;;;;;;;1.80;0.57;;;12.20;67.60;;;;;;5029770;28;20238;-68
2022/02/17 03:54:09;;;;;;;1.40;0.52;;;12.20;67.70;;;;;;5032846;28;20226;-67
2022/02/17 03:56:36;;;;;;;1.40;0.50;;;12.10;67.70;;;;;;5014126;28;20277;-67
2022/02/17 03:59:04;;;;;;;1.38;0.50;;;12.10;67.70;;;;;;5013152;28;20191;-69
2022/02/17 04:01:32;;;;;;;1.50;0.55;;;12.10;67.90;;;;;;5027935;28;20250;-68
2022/02/17 04:04:02;;;;;;;1.38;0.50;;;12.10;68.10;;;;;;5033039;28;20197;-68
2022/02/17 04:06:29;;;;;;;1.35;0.55;;;12.00;68.20;;;;;;5016702;28;20192;-69
2022/02/17 04:08:59;;;;;;;1.40;0.50;;;12.00;68.20;;;;;;5013606;28;20188;-70
2022/02/17 04:11:27;;;;;;;1.30;0.50;;;12.00;68.60;;;;;;5026362;28;20193;-68
2022/02/17 04:13:54;;;;;;;1.35;0.50;;;12.10;68.80;;;;;;5032645;28;20325;-68
2022/02/17 04:16:21;;;;;;;1.40;0.70;;;12.10;69.70;;;;;;5024301;28;20577;-68
2022/02/17 04:18:49;;;;;;;1.40;0.50;;;12.10;70.00;;;;;;5012946;28;20233;-72
2022/02/17 04:21:20;;;;;;;1.30;0.50;;;12.10;70.00;;;;;;5012760;28;20207;-72
2022/02/17 04:23:47;;;;;;;1.40;0.50;;;12.00;70.20;;;;;;5012938;28;20624;-68
2022/02/17 04:26:16;;;;;;;1.40;0.63;;;11.90;70.70;;;;;;5012447;28;20183;-67
2022/02/17 04:28:44;;;;;;;1.30;0.50;;;11.90;71.10;;;;;;5020671;28;20237;-67
2022/02/17 04:31:11;;;;;;;1.60;0.70;;;11.80;71.40;;;;;;5026797;28;20233;-68
2022/02/17 04:33:39;;;;;;;1.40;0.50;;;11.80;71.80;;;;;;5012331;28;20286;-68
2022/02/17 04:36:06;;;;;;;1.33;0.50;;;11.70;72.20;;;;;;5014955;28;20233;-69
2022/02/17 04:38:35;;;;;;;1.42;0.50;;;11.70;72.50;;;;;;5032321;28;20587;-69
2022/02/17 04:43:46;;;;;;;1.50;0.50;;;11.70;72.60;;;;;;5020678;28;20194;-68
2022/02/17 04:46:14;;;;;;;1.50;0.50;;;11.70;72.90;;;;;;5030150;28;20195;-68
2022/02/17 04:48:41;;;;;;;1.40;0.60;;;11.60;73.10;;;;;;5032139;28;20195;-68
2022/02/17 04:51:08;;;;;;;2.13;0.60;;;11.60;73.20;;;;;;5024158;28;20273;-69
2022/02/17 04:53:36;;;;;;;1.40;0.57;;;11.70;73.50;;;;;;5025368;28;20184;-68
2022/02/17 04:56:04;;;;;;;1.40;0.60;;;11.60;73.20;;;;;;5012538;28;20219;-69
2022/02/17 04:58:31;;;;;;;1.40;0.60;;;11.60;73.20;;;;;;5016859;28;20191;-68
2022/02/17 05:00:57;;;;;;;1.40;0.47;;;11.60;73.50;;;;;;5022412;28;20245;-67
2022/02/17 05:03:25;;;;;;;1.50;0.63;;;11.60;73.40;;;;;;5032220;28;20241;-68
2022/02/17 05:05:52;;;;;;;1.40;0.55;;;11.60;73.40;;;;;;5032254;28;20182;-68
2022/02/17 05:08:20;;;;;;;1.40;0.55;;;11.60;73.70;;;;;;5016138;28;20274;-67
2022/02/17 05:10:49;;;;;;;1.40;0.50;;;11.60;73.50;;;;;;5016319;28;20187;-70
2022/02/17 05:13:17;;;;;;;1.35;0.60;;;11.60;73.50;;;;;;5032738;28;20292;-67
2022/02/17 05:15:44;;;;;;;1.60;0.60;;;11.60;73.50;;;;;;5032846;28;20245;-68
2022/02/17 05:18:11;;;;;;;1.40;0.60;;;11.60;73.70;;;;;;5016062;28;20192;-69
2022/02/17 05:20:38;;;;;;;2.75;0.60;;;11.50;73.80;;;;;;5016069;28;20195;-68
2022/02/17 05:23:06;;;;;;;1.30;0.50;;;11.50;73.90;;;;;;5035434;28;20710;-68
2022/02/17 05:25:33;;;;;;;1.40;0.60;;;11.60;74.00;;;;;;5025645;28;20184;-69
2022/02/17 05:28:02;;;;;;;1.45;0.50;;;11.70;73.80;;;;;;5015963;28;20234;-67
2022/02/17 05:30:40;;;;;;;7.05;0.75;;;11.60;73.90;;;;;;5017505;28;20250;-69
2022/02/17 05:33:08;;;;;;;1.42;0.55;;;11.70;74.00;;;;;;5015401;28;20191;-68
2022/02/17 05:35:35;;;;;;;1.30;0.50;;;11.70;74.00;;;;;;5023803;28;20187;-68
2022/02/17 05:38:02;;;;;;;1.30;0.50;;;11.70;74.00;;;;;;5035301;28;20237;-67
2022/02/17 05:40:29;;;;;;;1.60;0.65;;;11.70;74.10;;;;;;5027371;28;20614;-68
2022/02/17 05:42:56;;;;;;;1.50;0.50;;;11.70;73.90;;;;;;5022536;28;20281;-68
2022/02/17 05:45:25;;;;;;;1.58;0.50;;;11.70;73.80;;;;;;5033588;28;20188;-67
2022/02/17 05:47:52;;;;;;;1.40;0.50;;;11.70;73.80;;;;;;5024399;28;20199;-68
2022/02/17 05:50:19;;;;;;;1.30;0.50;;;11.80;73.70;;;;;;5018776;28;20241;-67
2022/02/17 05:52:46;;;;;;;1.50;0.50;;;11.80;73.70;;;;;;5035219;28;20187;-67
2022/02/17 05:55:13;;;;;;;1.35;0.50;;;11.80;73.50;;;;;;5031149;28;20188;-76
2022/02/17 05:57:41;;;;;;;1.40;0.57;;;11.80;73.70;;;;;;5035112;28;20579;-68
2022/02/17 06:00:09;;;;;;;1.30;0.50;;;11.80;73.80;;;;;;5032446;28;20206;-68
2022/02/17 06:02:38;;;;;;;1.40;0.57;;;11.80;74.00;;;;;;5034873;28;20227;-68
2022/02/17 06:05:05;;;;;;;1.30;0.52;;;11.80;74.20;;;;;;5023182;28;20211;-68
2022/02/17 06:07:32;;;;;;;2.35;0.70;;;11.80;74.30;;;;;;5014939;28;20195;-69
2022/02/17 06:09:59;;;;;;;1.35;0.50;;;11.80;74.50;;;;;;5024062;28;20638;-69
2022/02/17 06:12:41;;;;;;;1.70;0.50;;;11.80;74.50;;;;;;5031906;28;20242;-68
2022/02/17 06:15:10;;;;;;;1.40;0.52;;;11.80;75.00;;;;;;5014390;28;20592;-73
2022/02/17 06:17:38;;;;;;;1.40;0.50;;;11.80;75.20;;;;;;5021989;28;20199;-68
2022/02/17 06:20:07;;;;;;;1.35;0.52;;;11.80;75.40;;;;;;5025527;28;20188;-70
2022/02/17 06:22:34;;;;;;;1.38;0.55;;;11.80;75.40;;;;;;5022319;28;20207;-69
2022/02/17 06:25:01;;;;;;;1.50;0.50;;;11.80;75.80;;;;;;5034575;28;20273;-68
2022/02/17 06:27:29;;;;;;;1.50;0.57;;;11.80;75.50;;;;;;5014551;28;20191;-68
2022/02/17 06:29:56;;;;;;;1.40;0.60;;;11.80;75.30;;;;;;5014604;28;20651;-68
2022/02/17 06:32:23;;;;;;;1.50;0.60;;;11.80;75.30;;;;;;5032087;28;20187;-68
2022/02/17 06:34:51;;;;;;;1.77;0.50;;;11.80;75.50;;;;;;5034432;28;20218;-68
2022/02/17 06:37:18;;;;;;;1.50;0.60;;;11.70;75.80;;;;;;5020088;28;20237;-68
2022/02/17 06:39:45;;;;;;;1.40;0.60;;;11.70;75.90;;;;;;5031897;28;20716;-68
2022/02/17 06:42:12;;;;;;;1.40;0.55;;;11.70;75.90;;;;;;5025240;28;20799;-68
2022/02/17 06:44:39;;;;;;;1.35;0.50;;;11.80;76.00;;;;;;5031027;28;20187;-67
2022/02/17 06:47:06;;;;;;;1.60;0.73;;;11.80;76.10;;;;;;5032282;28;20191;-68
2022/02/17 06:49:34;;;;;;;1.30;0.50;;;11.80;76.10;;;;;;5025817;28;20183;-68
2022/02/17 06:52:04;;;;;;;1.30;0.50;;;11.80;76.00;;;;;;5031097;28;20330;-68
2022/02/17 06:54:31;;;;;;;1.30;0.50;;;11.90;76.30;;;;;;5027910;28;20510;-68
2022/02/17 06:56:58;;;;;;;1.50;0.60;;;11.90;76.20;;;;;;5032175;28;20234;-69
2022/02/17 06:59:25;;;;;;;1.50;0.60;;;12.00;75.80;;;;;;5031265;28;20191;-68
2022/02/17 07:01:52;;;;;;;1.50;0.70;;;12.10;75.60;;;;;;5026818;28;20195;-68
2022/02/17 07:04:19;;;;;;;1.77;0.60;;;12.10;75.20;;;;;;5031368;28;20288;-68
2022/02/17 07:06:47;;;;;;;1.48;0.60;;;12.10;74.90;;;;;;5030584;28;20234;-68
2022/02/17 07:09:15;;;;;;;1.48;0.60;;;12.20;74.60;;;;;;5031756;28;20234;-68
2022/02/17 07:11:44;;;;;;;1.30;0.50;;;12.20;74.50;;;;;;5025933;28;20222;-68
2022/02/17 07:14:11;;;;;;;2.75;0.57;;;12.20;74.40;;;;;;5030619;28;20211;-71
2022/02/17 07:16:38;;;;;;;2.03;0.70;;;12.20;74.20;;;;;;5027162;28;20210;-68
2022/02/17 07:19:05;;;;;;;2.65;0.70;;;12.20;75.10;;;;;;5031055;28;20195;-69
2022/02/17 07:21:32;;;;;;;1.50;0.60;;;12.30;73.90;;;;;;5031963;28;20199;-68
2022/02/17 07:24:00;;;;;;;1.50;0.70;;;12.30;73.80;;;;;;5019532;28;20215;-69
2022/02/17 07:26:30;;;;;;;1.40;0.52;;;12.30;73.70;;;;;;5026545;28;20226;-67
2022/02/17 07:28:57;;;;;;;1.67;0.52;;;12.30;73.40;;;;;;5031025;28;20222;-69
2022/02/17 07:31:23;;;;;;;1.40;0.60;;;12.40;73.40;;;;;;5027964;28;20249;-68
2022/02/17 07:33:50;;;;;;;1.95;0.70;;;12.40;73.40;;;;;;5029976;28;20223;-69
2022/02/17 07:36:17;;;;;;;1.30;0.50;;;12.30;73.50;;;;;;5031683;28;20191;-68
2022/02/17 07:38:44;;;;;;;1.50;0.55;;;12.40;73.40;;;;;;5030961;28;20680;-68
2022/02/17 07:41:12;;;;;;;4.18;1.08;;;12.40;73.50;;;;;;5030359;28;20195;-72
2022/02/17 07:43:40;;;;;;;1.73;0.60;;;12.40;73.40;;;;;;5026448;28;20218;-67
2022/02/17 07:46:07;;;;;;;1.40;0.60;;;12.50;73.00;;;;;;5017866;28;20237;-68
2022/02/17 07:48:34;;;;;;;1.60;0.80;;;12.60;72.50;;;;;;5025795;28;20218;-68
2022/02/17 07:51:02;;;;;;;1.50;0.57;;;12.70;71.70;;;;;;5030199;28;20539;-68
2022/02/17 07:53:29;;;;;;;1.40;0.60;;;12.80;71.10;;;;;;5029244;28;20187;-68
2022/02/17 07:55:56;;;;;;;1.40;0.50;;;13.00;70.40;;;;;;5030818;28;20614;-67
2022/02/17 07:58:23;;;;;;;2.70;1.17;;;13.10;70.40;;;;;;5029828;28;21024;-68
2022/02/17 08:00:51;;;;;;;1.70;0.90;;;13.20;69.00;;;;;;5026528;28;20454;-68
2022/02/17 08:03:21;;;;;;;1.50;0.70;;;13.30;68.30;;;;;;5026382;28;20491;-71
2022/02/17 08:05:48;;;;;;;1.30;0.50;;;13.80;68.20;;;;;;5031332;28;20187;-70
2022/02/17 08:08:15;;;;;;;1.70;0.80;;;14.70;66.50;;;;;;5024790;28;20438;-69
2022/02/17 08:10:42;;;;;;;2.63;0.60;;;15.40;61.20;;;;;;5027623;28;20434;-68
2022/02/17 08:13:10;;;;;;;1.40;0.60;;;15.80;59.50;;;;;;5030335;28;20473;-68
2022/02/17 08:15:37;;;;;;;1.50;0.70;;;16.30;57.90;;;;;;5027567;28;20916;-70
2022/02/17 08:18:06;;;;;;;1.60;0.67;;;17.10;56.40;;;;;;5029304;28;21074;-68
2022/02/17 08:20:33;;;;;;;1.40;0.60;;;17.50;54.20;;;;;;5028641;28;20522;-70
2022/02/17 08:23:00;;;;;;;1.50;0.60;;;18.10;53.30;;;;;;5022910;28;20513;-69
2022/02/17 08:25:27;;;;;;;1.70;0.60;;;18.90;50.90;;;;;;5026022;28;20439;-68
2022/02/17 08:27:54;;;;;;;1.63;0.63;;;19.70;49.00;;;;;;5024710;28;20492;-69
2022/02/17 08:30:23;;;;;;;1.40;0.50;;;20.60;47.10;;;;;;5025224;28;20429;-69
2022/02/17 08:32:54;;;;;;;1.50;0.60;;;21.30;44.40;;;;;;5022259;28;20444;-68
2022/02/17 08:35:22;;;;;;;1.40;0.50;;;21.60;44.20;;;;;;5029657;28;20446;-69
2022/02/17 08:37:56;;;;;;;1.47;0.50;;;22.40;41.80;;;;;;5027295;28;20484;-69
2022/02/17 08:40:24;;;;;;;1.40;0.50;;;22.60;40.80;;;;;;5028876;28;20545;-69
2022/02/17 08:42:51;;;;;;;2.83;0.50;;;23.10;40.60;;;;;;5029542;28;20538;-69
2022/02/17 08:45:18;;;;;;;1.60;0.50;;;23.60;39.00;;;;;;5033766;28;20441;-68
2022/02/17 08:47:45;;;;;;;3.40;0.70;;;24.30;38.10;;;;;;5034331;28;20448;-69
2022/02/17 08:50:13;;;;;;;4.27;1.57;;;24.80;35.50;;;;;;5034304;28;20433;-68
2022/02/17 08:52:41;;;;;;;2.00;0.60;;;25.40;35.40;;;;;;5034637;28;20875;-69
2022/02/17 08:55:09;;;;;;;1.40;0.50;;;26.90;33.30;;;;;;5030104;28;20924;-69
2022/02/17 08:57:36;;;;;;;1.60;0.40;;;27.70;30.90;;;;;;5028511;28;20434;-69
2022/02/17 09:00:04;;;;;;;2.10;0.47;;;27.20;30.00;;;;;;5034021;28;20437;-68
2022/02/17 09:02:31;;;;;;;1.50;0.50;;;25.90;30.50;;;;;;5030826;28;21328;-68
2022/02/17 09:04:58;;;;;;;1.60;0.67;;;24.00;32.80;;;;;;5033904;28;20997;-69
2022/02/17 09:07:25;;;;;;;1.40;0.50;;;23.30;34.90;;;;;;5028381;28;20456;-69
2022/02/17 09:09:53;;;;;;;1.40;0.50;;;23.50;34.70;;;;;;5031490;28;20442;-69
2022/02/17 09:12:20;;;;;;;1.50;0.60;;;23.10;36.40;;;;;;5027549;28;20504;-68
2022/02/17 09:14:47;;;;;;;1.93;1.00;;;23.40;35.70;;;;;;5029676;28;20491;-69
2022/02/17 09:17:14;;;;;;;2.00;0.90;;;24.70;35.60;;;;;;5032581;28;20840;-70
2022/02/17 09:19:41;;;;;;;2.13;1.13;;;25.80;32.50;;;;;;5031372;28;20464;-69
2022/02/17 09:22:08;;;;;;;2.27;0.70;;;26.30;31.00;;;;;;5031808;28;20484;-69
2022/02/17 09:24:35;;;;;;;1.43;0.50;;;26.40;30.90;;;;;;5032778;28;20489;-70
2022/02/17 09:27:04;;;;;;;1.50;0.53;;;26.60;30.00;;;;;;5032567;28;20840;-69
2022/02/17 09:29:31;;;;;;;1.70;0.77;;;26.00;30.10;;;;;;5033779;28;20492;-68
2022/02/17 09:31:58;;;;;;;1.80;0.73;;;24.80;32.10;;;;;;5029382;28;20438;-68
2022/02/17 09:34:26;;;;;;;1.60;0.67;;;23.40;34.10;;;;;;5032799;28;20441;-72
2022/02/17 09:36:53;;;;;;;1.90;0.60;;;22.60;36.00;;;;;;5032137;28;20445;-69
2022/02/17 09:39:21;;;;;;;1.60;0.50;;;22.40;36.90;;;;;;5031817;28;20480;-69
2022/02/17 09:41:48;;;;;;;1.60;0.63;;;23.30;36.90;;;;;;5031866;28;20457;-68
2022/02/17 09:44:20;;;;;;;1.77;0.50;;;24.80;35.50;;;;;;5032662;28;20512;-69
2022/02/17 09:46:48;;;;;;;2.00;1.13;;;25.90;31.40;;;;;;5028784;28;20445;-69
2022/02/17 09:49:16;;;;;;;1.90;0.70;;;25.60;31.40;;;;;;5030704;28;20485;-69
2022/02/17 09:51:44;;;;;;;2.63;0.70;;;26.60;32.70;;;;;;5032126;28;20451;-70
2022/02/17 09:54:11;;;;;;;1.50;0.50;;;28.40;29.30;;;;;;5031162;28;20526;-69
2022/02/17 09:56:39;;;;;;;1.50;0.60;;;29.60;27.20;;;;;;5030392;28;20887;-70
2022/02/17 09:59:06;;;;;;;1.70;0.50;;;28.80;27.40;;;;;;5027214;28;20469;-69
2022/02/17 10:01:35;;;;;;;1.77;0.60;;;29.00;26.60;;;;;;5029259;28;20529;-69
2022/02/17 10:04:12;;;;;;;1.70;0.60;;;29.40;26.80;;;;;;5025132;28;20546;-69
2022/02/17 10:06:42;;;;;;;1.70;0.70;;;29.90;26.20;;;;;;5027700;28;20433;-71
2022/02/17 10:09:09;;;;;;;1.70;0.70;;;30.60;25.60;;;;;;5032264;28;20449;-70
2022/02/17 10:11:39;;;;;;;1.50;0.60;;;30.70;25.30;;;;;;5031130;28;20615;-69
2022/02/17 10:14:08;;;;;;;1.80;0.80;;;29.80;25.30;;;;;;5030820;28;20474;-69
2022/02/17 10:16:55;;;;;;;1.63;0.67;;;30.50;26.60;;;;;;5028602;28;20475;-69
2022/02/17 10:19:24;;;;;;;1.40;0.50;;;32.50;23.90;;;;;;5025292;28;20449;-73
2022/02/17 10:21:51;;;;;;;1.40;0.40;;;33.20;23.20;;;;;;5032217;28;20441;-69
2022/02/17 10:24:32;;;;;;;1.80;0.50;;;32.30;22.60;;;;;;5030632;28;20448;-69
2022/02/17 10:27:07;;;;;;;1.40;0.47;;;30.10;24.10;;;;;;5028711;28;20505;-69
2022/02/17 10:29:34;;;;;;;1.97;0.50;;;29.40;25.30;;;;;;5029421;28;20528;-69
2022/02/17 10:32:15;;;;;;;1.40;0.47;;;28.10;25.80;;;;;;5031464;28;20908;-69
2022/02/17 10:34:44;;;;;;;1.60;0.50;;;26.40;26.80;;;;;;5030776;28;20511;-69
2022/02/17 10:37:11;;;;;;;2.37;0.47;;;25.50;29.50;;;;;;5032009;28;20515;-69
2022/02/17 10:39:43;;;;;;;1.47;0.50;;;27.20;29.60;;;;;;5027398;28;20439;-69
2022/02/17 10:42:13;;;;;;;1.77;0.50;;;30.10;25.50;;;;;;5031533;28;20904;-69
2022/02/17 10:44:42;;;;;;;1.70;0.50;;;31.00;24.10;;;;;;5031005;28;20446;-68
2022/02/17 10:47:19;;;;;;;1.80;0.60;;;30.50;23.30;;;;;;5030939;28;20433;-69
2022/02/17 10:49:50;;;;;;;2.23;0.57;;;29.70;22.90;;;;;;5030458;28;20928;-68
2022/02/17 10:52:30;;;;;;;2.20;0.70;;;27.90;24.00;;;;;;5028219;28;20534;-69
2022/02/17 10:55:13;;;;;;;2.13;0.70;;;26.20;25.50;;;;;;5026087;28;21033;-68
2022/02/17 10:57:40;;;;;;;1.70;0.60;;;26.30;26.70;;;;;;5031404;28;21147;-68
2022/02/17 11:00:15;;;;;;;3.80;0.73;;;27.30;26.40;;;;;;5025985;28;20449;-71
2022/02/17 11:02:44;;;;;;;1.40;0.50;;;27.80;25.30;;;;;;5029170;28;20431;-69
2022/02/17 11:05:12;;;;;;;1.50;0.50;;;27.80;25.90;;;;;;5028316;28;20998;-68
2022/02/17 11:07:40;;;;;;;3.30;0.60;;;29.70;25.60;;;;;;5030413;28;20850;-69
2022/02/17 11:10:09;;;;;;;1.40;0.50;;;32.30;23.20;;;;;;5031200;28;20749;-69
2022/02/17 11:12:37;;;;;;;1.60;0.50;;;34.90;22.00;;;;;;5027611;28;20847;-69
2022/02/17 11:15:05;;;;;;;1.50;0.50;;;36.20;19.60;;;;;;5031306;28;20901;-70
2022/02/17 11:17:36;;;;;;;1.40;0.50;;;36.20;18.60;;;;;;5027246;28;21299;-69
2022/02/17 11:20:11;;;;;;;1.47;0.50;;;35.40;18.20;;;;;;5028836;28;20438;-69
2022/02/17 11:22:41;;;;;;;1.70;0.50;;;34.80;18.70;;;;;;5026543;28;20473;-71
2022/02/17 11:25:11;;;;;;;2.27;0.50;;;33.60;19.20;;;;;;5029025;28;20445;-69
2022/02/17 11:27:58;;;;;;;1.40;0.50;;;31.90;20.20;;;;;;5029248;28;20456;-70
2022/02/17 11:30:27;;;;;;;1.77;0.50;;;29.90;21.90;;;;;;5029270;28;20546;-69
2022/02/17 11:33:22;;;;;;;1.40;0.50;;;27.90;23.70;;;;;;5026273;28;20453;-69
2022/02/17 11:35:51;;;;;;;1.50;0.50;;;26.00;26.00;;;;;;5028727;28;20439;-69
2022/02/17 11:38:32;;;;;;;1.50;0.50;;;24.30;28.40;;;;;;5024448;28;20537;-69
2022/02/17 11:41:02;;;;;;;1.40;0.47;;;23.70;30.00;;;;;;5028851;28;20500;-69
2022/02/17 11:43:31;;;;;;;1.40;0.50;;;24.20;31.90;;;;;;5029579;28;20511;-68
2022/02/17 11:45:58;;;;;;;1.53;0.67;;;24.40;30.30;;;;;;5023263;28;20507;-69
2022/02/17 11:48:36;;;;;;;1.50;0.50;;;24.10;30.20;;;;;;5029764;28;20959;-69
2022/02/17 11:51:21;;;;;;;1.50;0.50;;;25.10;31.20;;;;;;5029262;28;20438;-69
2022/02/17 11:53:48;;;;;;;1.50;0.50;;;26.90;29.30;;;;;;5028885;28;20490;-79
2022/02/17 11:56:36;;;;;;;1.70;0.70;;;26.90;27.90;;;;;;5023493;28;20546;-68
2022/02/17 11:59:19;;;;;;;1.40;0.50;;;26.30;27.50;;;;;;5023457;28;20803;-70
2022/02/17 12:01:46;;;;;;;1.60;0.50;;;25.30;28.30;;;;;;5025028;28;20430;-68
2022/02/17 12:04:18;;;;;;;1.37;0.40;;;24.20;29.60;;;;;;5022194;28;20439;-69
2022/02/17 12:06:48;;;;;;;2.60;0.60;;;22.80;31.40;;;;;;5028739;28;20448;-68
2022/02/17 12:09:37;;;;;;;1.60;0.50;;;21.70;34.90;;;;;;5029092;28;20816;-68
2022/02/17 12:12:39;;;;;;;2.50;0.50;;;20.60;36.50;;;;;;5028531;28;20940;-70
2022/02/17 12:15:12;;;;;;;1.63;0.57;;;19.80;38.30;;;;;;5027129;28;20507;-69
2022/02/17 12:17:40;;;;;;;2.93;0.53;;;19.10;40.60;;;;;;5023610;28;21014;-68
2022/02/17 12:20:11;;;;;;;2.13;0.50;;;18.50;42.30;;;;;;5029184;28;20457;-69
2022/02/17 12:22:52;;;;;;;1.97;0.60;;;18.00;43.30;;;;;;5028320;28;20438;-68
2022/02/17 12:25:25;;;;;;;1.50;0.60;;;17.50;44.80;;;;;;5027474;28;20452;-68
2022/02/17 12:27:54;;;;;;;1.80;0.90;;;17.10;45.80;;;;;;5022955;28;21235;-67
2022/02/17 12:30:27;;;;;;;2.43;0.80;;;16.80;46.90;;;;;;5028462;28;20492;-68
2022/02/17 12:33:15;;;;;;;2.30;1.03;;;16.60;48.30;;;;;;5028551;28;20524;-72
2022/02/17 12:35:45;;;;;;;1.73;0.70;;;16.40;49.20;;;;;;5024360;28;20531;-69
2022/02/17 12:38:16;;;;;;;1.80;0.83;;;16.20;49.70;;;;;;5027339;28;20446;-69
2022/02/17 12:40:44;;;;;;;1.77;0.80;;;16.10;51.10;;;;;;5027819;28;20483;-68
2022/02/17 12:43:12;;;;;;;2.83;0.80;;;15.90;51.90;;;;;;5026670;28;20434;-68
2022/02/17 12:45:42;;;;;;;1.70;0.63;;;15.60;52.30;;;;;;5027834;28;20440;-72
2022/02/17 12:48:12;;;;;;;2.53;1.17;;;15.50;52.20;;;;;;5028898;28;20889;-68
2022/02/17 12:50:42;;;;;;;2.10;0.80;;;15.40;51.10;;;;;;5028745;28;20844;-68
2022/02/17 12:53:10;;;;;;;2.03;0.70;;;15.40;51.50;;;;;;5028698;28;20450;-69
2022/02/17 12:55:45;;;;;;;2.43;0.90;;;15.40;52.30;;;;;;5027092;28;20508;-69
2022/02/17 12:58:13;;;;;;;2.20;0.80;;;15.60;51.70;;;;;;5026974;28;20433;-68